createdAt,value
2022-12-19T00:00:50.375Z,27.00
2022-12-19T00:03:28.459Z,35.40
2022-12-19T00:06:00.924Z,19.10
2022-12-19T00:08:29.964Z,25.30
2022-12-19T00:11:02.146Z,20.70
2022-12-19T00:13:33.622Z,28.50
2022-12-19T00:16:20.083Z,27.80
2022-12-19T00:18:50.994Z,20.60
2022-12-19T00:21:28.800Z,22.40
2022-12-19T00:23:58.026Z,23.70
2022-12-19T00:26:37.261Z,48.40
2022-12-19T00:29:14.131Z,31.10
2022-12-19T00:31:43.678Z,29.70
2022-12-19T00:34:12.229Z,29.60
2022-12-19T00:36:42.149Z,24.10
2022-12-19T00:39:11.955Z,38.20
2022-12-19T00:41:42.107Z,33.80
2022-12-19T00:44:14.578Z,31.60
2022-12-19T00:46:46.189Z,23.20
2022-12-19T00:49:21.866Z,26.60
2022-12-19T00:51:50.651Z,19.30
2022-12-19T00:54:19.383Z,22.70
2022-12-19T00:56:48.535Z,17.40
2022-12-19T00:59:18.128Z,18.20
2022-12-19T01:01:55.310Z,20.90
2022-12-19T01:04:28.851Z,18.20
2022-12-19T01:07:02.706Z,15.30
2022-12-19T01:09:36.848Z,16.10
2022-12-19T01:12:25.820Z,16.70
2022-12-19T01:15:03.771Z,16.50
2022-12-19T01:17:37.752Z,16.90
2022-12-19T01:20:29.093Z,17.70
2022-12-19T01:23:00.100Z,15.50
2022-12-19T01:25:29.802Z,19.40
2022-12-19T01:27:58.589Z,17.40
2022-12-19T01:30:29.202Z,20.50
2022-12-19T01:33:00.948Z,11.60
2022-12-19T01:35:29.772Z,19.10
2022-12-19T01:38:07.965Z,19.10
2022-12-19T01:40:37.994Z,17.40
2022-12-19T01:43:12.849Z,18.10
2022-12-19T01:45:45.834Z,18.10
2022-12-19T01:48:22.065Z,15.40
2022-12-19T01:51:10.634Z,15.70
2022-12-19T01:53:51.404Z,14.60
2022-12-19T01:56:28.965Z,16.20
2022-12-19T01:59:06.378Z,16.50
2022-12-19T02:01:51.534Z,16.20
2022-12-19T02:04:28.974Z,16.10
2022-12-19T02:07:16.114Z,18.50
2022-12-19T02:09:51.932Z,15.80
2022-12-19T02:12:33.079Z,16.90
2022-12-19T02:15:03.636Z,18.80
2022-12-19T02:18:11.015Z,16.60
2022-12-19T02:21:04.782Z,20.70
2022-12-19T02:23:55.906Z,19.50
2022-12-19T02:26:48.658Z,18.10
2022-12-19T02:29:56.868Z,19.40
2022-12-19T02:32:41.675Z,16.60
2022-12-19T02:35:18.621Z,16.00
2022-12-19T02:37:58.363Z,14.50
2022-12-19T02:40:39.855Z,17.20
2022-12-19T02:43:10.922Z,18.90
2022-12-19T02:45:41.267Z,18.90
2022-12-19T02:48:12.292Z,19.40
2022-12-19T02:50:50.310Z,17.40
2022-12-19T02:53:23.547Z,19.40
2022-12-19T02:56:20.416Z,20.00
2022-12-19T02:59:12.151Z,17.40
2022-12-19T03:01:50.335Z,14.30
2022-12-19T03:05:19.065Z,19.10
2022-12-19T03:08:09.377Z,23.40
2022-12-19T03:10:53.711Z,24.80
2022-12-19T03:13:38.259Z,11.50
2022-12-19T03:16:11.299Z,19.20
2022-12-19T03:18:41.192Z,19.10
2022-12-19T03:21:42.211Z,16.10
2022-12-19T03:24:13.350Z,20.40
2022-12-19T03:27:03.569Z,19.00
2022-12-19T03:30:01.740Z,17.70
2022-12-19T03:32:32.653Z,16.40
2022-12-19T03:35:09.021Z,12.10
2022-12-19T03:37:42.287Z,16.50
2022-12-19T03:40:19.546Z,15.80
2022-12-19T03:43:08.896Z,15.80
2022-12-19T03:45:40.906Z,15.80
2022-12-19T03:48:49.220Z,17.20
2022-12-19T03:51:57.889Z,15.00
2022-12-19T03:54:33.393Z,12.70
2022-12-19T03:57:10.640Z,14.00
2022-12-19T03:59:39.222Z,10.80
2022-12-19T04:02:09.109Z,14.10
2022-12-19T04:04:44.024Z,15.60
2022-12-19T04:07:15.155Z,13.00
2022-12-19T04:09:46.573Z,15.40
2022-12-19T04:12:21.450Z,14.50
2022-12-19T04:14:50.901Z,14.40
2022-12-19T04:17:47.340Z,12.50
2022-12-19T04:20:25.572Z,15.00
2022-12-19T04:23:23.961Z,10.30
2022-12-19T04:26:00.207Z,12.10
2022-12-19T04:28:59.239Z,14.10
2022-12-19T04:31:27.903Z,9.90
2022-12-19T04:33:56.568Z,12.30
2022-12-19T04:36:26.854Z,13.00
2022-12-19T04:38:55.556Z,14.10
2022-12-19T04:41:24.164Z,14.80
2022-12-19T04:43:52.867Z,12.60
2022-12-19T04:46:21.660Z,13.10
2022-12-19T04:48:50.429Z,16.00
2022-12-19T04:51:19.530Z,18.40
2022-12-19T04:53:48.218Z,18.70
2022-12-19T04:56:17.141Z,15.50
2022-12-19T04:58:46.099Z,14.40
2022-12-19T05:01:14.948Z,15.40
2022-12-19T05:03:43.628Z,14.40
2022-12-19T05:06:15.329Z,14.30
2022-12-19T05:08:44.639Z,13.40
2022-12-19T05:11:19.762Z,14.80
2022-12-19T05:13:50.322Z,13.40
2022-12-19T05:16:19.248Z,15.00
2022-12-19T05:18:47.777Z,12.90
2022-12-19T05:21:16.566Z,15.50
2022-12-19T05:23:45.148Z,10.30
2022-12-19T05:26:14.051Z,14.40
2022-12-19T05:28:42.629Z,13.00
2022-12-19T05:31:11.275Z,14.70
2022-12-19T05:33:41.781Z,9.70
2022-12-19T05:36:12.559Z,12.60
2022-12-19T05:38:41.669Z,12.40
2022-12-19T05:41:14.525Z,14.10
2022-12-19T05:43:45.295Z,14.10
2022-12-19T05:46:13.933Z,14.80
2022-12-19T05:48:42.984Z,15.20
2022-12-19T05:51:12.476Z,43.30
2022-12-19T05:53:42.215Z,117.80
2022-12-19T05:56:17.753Z,70.50
2022-12-19T05:58:47.362Z,31.10
2022-12-19T06:01:23.920Z,28.50
2022-12-19T06:03:54.112Z,38.50
2022-12-19T06:06:26.632Z,28.20
2022-12-19T06:08:57.423Z,25.30
2022-12-19T06:11:27.473Z,24.60
2022-12-19T06:13:55.949Z,27.90
2022-12-19T06:16:24.989Z,21.40
2022-12-19T06:18:55.061Z,23.70
2022-12-19T06:21:24.135Z,21.20
2022-12-19T06:23:52.751Z,12.50
2022-12-19T06:26:22.822Z,31.30
2022-12-19T06:28:53.590Z,21.90
2022-12-19T06:31:25.175Z,26.50
2022-12-19T06:33:55.886Z,23.50
2022-12-19T06:36:31.689Z,21.20
2022-12-19T06:39:00.326Z,20.30
2022-12-19T06:41:47.851Z,17.40
2022-12-19T06:44:17.975Z,28.30
2022-12-19T06:46:46.467Z,39.70
2022-12-19T06:49:15.044Z,24.20
2022-12-19T06:51:43.929Z,28.50
2022-12-19T06:54:13.911Z,34.00
2022-12-19T06:56:44.277Z,51.90
2022-12-19T06:59:15.582Z,41.60
2022-12-19T07:02:08.990Z,31.70
2022-12-19T07:04:43.785Z,20.60
2022-12-19T07:07:12.401Z,37.00
2022-12-19T07:09:41.717Z,26.30
2022-12-19T07:12:10.596Z,43.90
2022-12-19T07:14:39.179Z,24.20
2022-12-19T07:17:07.967Z,16.60
2022-12-19T07:19:36.577Z,25.20
2022-12-19T07:22:06.277Z,18.60
2022-12-19T07:24:36.385Z,23.30
2022-12-19T07:27:09.493Z,26.20
2022-12-19T07:29:38.063Z,23.30
2022-12-19T07:32:06.794Z,25.70
2022-12-19T07:34:35.538Z,24.80
2022-12-19T07:37:04.120Z,35.70
2022-12-19T07:39:32.906Z,22.60
2022-12-19T07:42:01.397Z,17.70
2022-12-19T07:44:35.605Z,22.10
2022-12-19T07:47:04.396Z,21.20
2022-12-19T07:49:32.991Z,21.80
2022-12-19T07:52:02.078Z,16.20
2022-12-19T07:54:30.675Z,13.40
2022-12-19T07:56:59.247Z,16.80
2022-12-19T07:59:32.205Z,19.30
2022-12-19T08:02:04.719Z,17.60
2022-12-19T08:04:33.598Z,14.30
2022-12-19T08:07:02.699Z,25.40
2022-12-19T08:09:32.649Z,22.60
2022-12-19T08:12:01.301Z,20.60
2022-12-19T08:14:29.983Z,18.70
2022-12-19T08:19:47.135Z,17.90
2022-12-19T08:22:16.626Z,17.00
2022-12-19T08:24:45.733Z,15.50
2022-12-19T08:27:17.560Z,11.20
2022-12-19T08:29:46.166Z,15.80
2022-12-19T08:32:20.883Z,18.60
2022-12-19T08:34:51.022Z,16.00
2022-12-19T08:37:19.510Z,17.80
2022-12-19T08:39:48.858Z,11.10
2022-12-19T08:42:17.806Z,13.10
2022-12-19T08:44:46.381Z,17.00
2022-12-19T08:47:15.367Z,18.80
2022-12-19T08:49:43.852Z,15.40
2022-12-19T08:52:12.441Z,14.00
2022-12-19T08:54:41.044Z,15.50
2022-12-19T08:57:09.712Z,13.50
2022-12-19T08:59:38.716Z,14.30
2022-12-19T09:02:09.830Z,17.70
2022-12-19T09:05:57.825Z,15.50
2022-12-19T09:07:27.191Z,21.20
2022-12-19T09:09:55.879Z,14.90
2022-12-19T09:12:24.474Z,13.70
2022-12-19T09:14:53.153Z,15.90
2022-12-19T09:17:21.844Z,12.90
2022-12-19T09:19:51.041Z,16.10
2022-12-19T09:22:19.723Z,14.30
2022-12-19T09:24:48.309Z,14.30
2022-12-19T09:27:17.008Z,13.20
2022-12-19T09:29:45.787Z,15.10
2022-12-19T09:32:14.584Z,17.70
2022-12-19T09:34:43.158Z,15.90
2022-12-19T09:37:17.094Z,15.20
2022-12-19T09:39:47.802Z,14.50
2022-12-19T09:42:45.335Z,37.50
2022-12-19T09:45:32.995Z,19.30
2022-12-19T09:48:03.060Z,14.40
2022-12-19T09:50:57.006Z,14.20
2022-12-19T09:54:07.979Z,16.30
2022-12-19T09:56:46.216Z,16.50
2022-12-19T09:59:42.782Z,13.90
2022-12-19T10:02:33.893Z,13.20
2022-12-19T10:06:39.168Z,15.10
2022-12-19T10:08:51.991Z,15.50
2022-12-19T10:12:42.160Z,17.20
2022-12-19T10:14:53.487Z,15.10
2022-12-19T10:17:46.041Z,15.10
2022-12-19T10:20:42.880Z,15.60
2022-12-19T10:23:40.040Z,22.70
2022-12-19T10:26:29.933Z,29.70
2022-12-19T10:29:30.042Z,32.10
2022-12-19T10:32:36.916Z,18.60
2022-12-19T10:35:19.081Z,48.70
2022-12-19T10:37:55.674Z,21.40
2022-12-19T10:40:29.467Z,17.90
2022-12-19T10:43:19.111Z,17.10
2022-12-19T10:46:11.356Z,16.40
2022-12-19T10:48:40.129Z,19.90
2022-12-19T10:51:19.178Z,20.00
2022-12-19T10:53:58.811Z,17.20
2022-12-19T10:56:37.385Z,16.30
2022-12-19T10:59:18.528Z,15.90
2022-12-19T11:01:48.529Z,17.40
2022-12-19T11:04:36.239Z,17.70
2022-12-19T11:07:05.412Z,18.60
2022-12-19T11:09:48.161Z,21.70
2022-12-19T11:15:45.828Z,18.70
2022-12-19T11:19:42.592Z,27.70
2022-12-19T11:27:34.374Z,28.20
2022-12-19T11:29:30.231Z,18.70
2022-12-19T11:30:35.943Z,15.00
2022-12-19T11:30:44.128Z,18.70
2022-12-19T11:33:24.476Z,20.00
2022-12-19T11:35:56.804Z,21.20
2022-12-19T11:38:53.167Z,21.60
2022-12-19T11:41:39.364Z,18.50
2022-12-19T11:44:45.017Z,23.70
2022-12-19T11:47:48.727Z,23.60
2022-12-19T11:50:33.095Z,20.90
2022-12-19T11:53:34.839Z,17.90
2022-12-19T11:56:18.876Z,19.40
2022-12-19T11:58:53.679Z,28.40
2022-12-19T12:02:10.336Z,23.20
2022-12-19T12:04:52.074Z,18.90
2022-12-19T12:07:37.361Z,20.90
2022-12-19T12:15:13.773Z,21.70
2022-12-19T12:20:47.440Z,14.70
2022-12-19T12:28:42.855Z,23.50
2022-12-19T12:31:14.530Z,20.90
2022-12-19T12:31:46.048Z,12.70
2022-12-19T12:31:51.388Z,14.30
2022-12-19T12:32:06.313Z,12.40
2022-12-19T12:35:56.311Z,13.20
2022-12-19T12:39:18.217Z,13.60
2022-12-19T12:42:23.623Z,12.00
2022-12-19T12:44:57.413Z,14.10
2022-12-19T12:47:30.469Z,23.80
2022-12-19T12:50:15.080Z,33.40
2022-12-19T12:53:09.643Z,18.20
2022-12-19T12:55:42.107Z,31.40
2022-12-19T12:58:54.352Z,17.50
2022-12-19T13:01:29.074Z,20.60
2022-12-19T13:04:13.235Z,14.10
2022-12-19T13:07:29.310Z,22.40
2022-12-19T13:10:20.448Z,13.10
2022-12-19T13:13:19.742Z,11.60
2022-12-19T13:15:51.305Z,16.00
2022-12-19T13:18:38.206Z,11.00
2022-12-19T13:21:09.809Z,13.20
2022-12-19T13:23:38.467Z,18.10
2022-12-19T13:26:47.332Z,12.10
2022-12-19T13:29:33.606Z,14.30
2022-12-19T13:32:13.302Z,13.30
2022-12-19T13:34:58.632Z,12.30
2022-12-19T13:39:56.640Z,14.10
2022-12-19T13:41:23.133Z,13.50
2022-12-19T13:43:59.490Z,13.20
2022-12-19T13:46:39.877Z,12.00
2022-12-19T13:49:31.781Z,13.40
2022-12-19T13:52:05.231Z,13.20
2022-12-19T13:54:52.541Z,14.20
2022-12-19T13:57:26.796Z,10.90
2022-12-19T14:00:02.187Z,12.50
2022-12-19T14:02:55.093Z,12.50
2022-12-19T14:06:15.094Z,12.60
2022-12-19T14:08:25.692Z,13.30
2022-12-19T14:11:41.539Z,13.60
2022-12-19T14:14:25.514Z,14.40
2022-12-19T14:17:09.367Z,14.80
2022-12-19T14:19:44.903Z,13.10
2022-12-19T14:22:26.048Z,14.80
2022-12-19T14:25:10.138Z,13.90
2022-12-19T14:28:21.571Z,13.70
2022-12-19T14:30:59.710Z,19.30
2022-12-19T14:33:47.266Z,14.00
2022-12-19T14:36:28.292Z,13.30
2022-12-19T14:39:27.852Z,13.70
2022-12-19T14:42:10.671Z,12.80
2022-12-19T14:54:08.629Z,16.60
2022-12-19T14:54:08.900Z,14.40
2022-12-19T14:54:09.276Z,14.00
2022-12-19T14:54:40.652Z,14.90
2022-12-19T14:56:36.275Z,13.50
2022-12-19T14:59:23.016Z,15.00
2022-12-19T15:01:55.308Z,14.90
2022-12-19T15:04:50.609Z,11.80
2022-12-19T15:07:29.684Z,15.90
2022-12-19T15:11:08.384Z,14.50
2022-12-19T15:14:54.329Z,20.70
2022-12-19T15:16:34.874Z,17.50
2022-12-19T15:19:11.142Z,16.50
2022-12-19T15:21:39.625Z,16.00
2022-12-19T15:24:09.023Z,17.50
2022-12-19T15:26:48.691Z,17.40
2022-12-19T15:29:21.875Z,13.90
2022-12-19T15:31:51.333Z,11.50
2022-12-19T15:34:44.359Z,17.30
2022-12-19T15:37:17.721Z,16.80
2022-12-19T15:39:46.307Z,16.20
2022-12-19T15:42:25.154Z,24.90
2022-12-19T15:44:56.731Z,17.30
2022-12-19T15:47:31.159Z,14.60
2022-12-19T15:50:04.116Z,14.80
2022-12-19T15:52:32.885Z,14.90
2022-12-19T15:55:01.474Z,14.70
2022-12-19T15:57:38.641Z,15.00
2022-12-19T16:00:16.552Z,15.70
2022-12-19T16:03:22.932Z,16.20
2022-12-19T16:05:35.635Z,15.50
2022-12-19T16:08:16.061Z,15.70
2022-12-19T16:10:49.011Z,17.20
2022-12-19T16:13:30.808Z,18.90
2022-12-19T16:15:59.827Z,16.80
2022-12-19T16:18:28.683Z,16.10
2022-12-19T16:20:57.666Z,13.40
2022-12-19T16:23:26.964Z,18.80
2022-12-19T16:25:55.954Z,16.50
2022-12-19T16:28:34.221Z,16.50
2022-12-19T16:31:16.914Z,15.10
2022-12-19T16:33:45.566Z,16.70
2022-12-19T16:36:14.360Z,15.20
2022-12-19T16:38:43.165Z,17.50
2022-12-19T16:41:26.486Z,23.70
2022-12-19T16:43:55.066Z,16.70
2022-12-19T16:46:26.401Z,17.30
2022-12-19T16:48:55.004Z,20.80
2022-12-19T16:51:27.819Z,15.40
2022-12-19T16:54:00.856Z,16.50
2022-12-19T16:56:48.196Z,18.40
2022-12-19T16:59:32.029Z,17.70
2022-12-19T17:02:01.287Z,19.80
2022-12-19T17:04:30.633Z,18.70
2022-12-19T17:07:00.447Z,17.60
2022-12-19T17:09:29.032Z,18.70
2022-12-19T17:12:01.056Z,20.40
2022-12-19T17:14:32.312Z,17.20
2022-12-19T17:17:01.313Z,22.70
2022-12-19T17:19:41.946Z,20.70
2022-12-19T17:22:16.210Z,19.40
2022-12-19T17:24:49.303Z,22.90
2022-12-19T17:27:19.565Z,22.20
2022-12-19T17:29:48.324Z,18.20
2022-12-19T17:32:23.617Z,16.70
2022-12-19T17:34:53.278Z,18.50
2022-12-19T17:37:22.165Z,19.70
2022-12-19T17:39:50.858Z,19.10
2022-12-19T17:42:24.399Z,17.40
2022-12-19T17:44:53.075Z,16.00
2022-12-19T17:47:21.743Z,15.60
2022-12-19T17:49:51.179Z,15.60
2022-12-19T17:52:20.623Z,14.50
2022-12-19T17:54:49.444Z,13.70
2022-12-19T17:57:19.710Z,17.70
2022-12-19T17:59:48.245Z,17.10
2022-12-19T18:02:24.009Z,15.70
2022-12-19T18:04:54.008Z,16.60
2022-12-19T18:07:22.588Z,14.40
2022-12-19T18:09:51.337Z,15.70
2022-12-19T18:12:20.382Z,15.80
2022-12-19T18:14:48.966Z,13.60
2022-12-19T18:17:25.706Z,18.00
2022-12-19T18:19:54.947Z,17.50
2022-12-19T18:22:23.826Z,16.40
2022-12-19T18:24:52.817Z,14.00
2022-12-19T18:27:21.602Z,20.10
2022-12-19T18:29:50.224Z,14.90
2022-12-19T18:32:20.620Z,18.00
2022-12-19T18:34:49.407Z,15.30
2022-12-19T18:37:18.107Z,16.20
2022-12-19T18:39:46.886Z,16.60
2022-12-19T18:42:22.242Z,16.80
2022-12-19T18:44:50.939Z,14.50
2022-12-19T18:47:25.678Z,14.00
2022-12-19T18:49:54.439Z,17.90
2022-12-19T18:52:23.032Z,18.40
2022-12-19T18:54:52.113Z,25.00
2022-12-19T18:57:20.615Z,29.20
2022-12-19T18:59:50.411Z,20.70
2022-12-19T19:02:28.204Z,23.10
2022-12-19T19:04:57.418Z,19.90
2022-12-19T19:07:25.992Z,27.50
2022-12-19T19:09:54.887Z,20.40
2022-12-19T19:12:48.866Z,30.50
2022-12-19T19:15:24.413Z,22.00
2022-12-19T19:17:59.016Z,24.30
2022-12-19T19:20:31.123Z,26.20
2022-12-19T19:23:00.546Z,20.90
2022-12-19T19:25:29.098Z,18.60
2022-12-19T19:27:58.495Z,14.70
2022-12-19T19:30:27.078Z,26.30
2022-12-19T19:33:07.748Z,19.10
2022-12-19T19:35:37.148Z,15.90
2022-12-19T19:38:08.870Z,18.30
2022-12-19T19:40:37.701Z,18.60
2022-12-19T19:43:07.311Z,19.00
2022-12-19T19:45:46.391Z,19.90
2022-12-19T19:48:15.746Z,17.70
2022-12-19T19:50:44.427Z,16.80
2022-12-19T19:53:13.008Z,18.50
2022-12-19T19:55:41.696Z,14.50
2022-12-19T19:58:10.280Z,16.50
2022-12-19T20:00:40.356Z,15.90
2022-12-19T20:03:10.720Z,14.60
2022-12-19T20:05:40.640Z,16.60
2022-12-19T20:08:09.228Z,16.50
2022-12-19T20:10:37.915Z,14.30
2022-12-19T20:13:06.810Z,15.80
2022-12-19T20:15:35.513Z,13.80
2022-12-19T20:18:04.999Z,15.90
2022-12-19T20:20:34.050Z,13.00
2022-12-19T20:23:05.488Z,15.80
2022-12-19T20:25:36.691Z,16.40
2022-12-19T20:28:06.091Z,14.90
2022-12-19T20:30:34.684Z,14.10
2022-12-19T20:33:03.382Z,14.50
2022-12-19T20:35:32.054Z,13.50
2022-12-19T20:38:00.650Z,12.10
2022-12-19T20:40:29.737Z,14.00
2022-12-19T20:42:58.321Z,14.70
2022-12-19T20:45:27.106Z,14.80
2022-12-19T20:47:55.800Z,14.40
2022-12-19T20:50:24.654Z,14.40
2022-12-19T20:52:53.271Z,14.90
2022-12-19T20:55:22.391Z,14.80
2022-12-19T20:57:51.060Z,13.90
2022-12-19T21:00:20.508Z,12.50
2022-12-19T21:03:25.962Z,13.80
2022-12-19T21:05:37.913Z,13.90
2022-12-19T21:08:07.408Z,13.80
2022-12-19T21:10:36.802Z,15.70
2022-12-19T21:13:05.906Z,14.60
2022-12-19T21:15:35.018Z,13.80
2022-12-19T21:18:03.918Z,15.10
2022-12-19T21:20:38.254Z,13.60
2022-12-19T21:23:06.901Z,14.60
2022-12-19T21:25:35.696Z,14.00
2022-12-19T21:28:04.482Z,12.30
2022-12-19T21:30:33.164Z,14.40
2022-12-19T21:33:01.852Z,14.80
2022-12-19T21:35:33.185Z,13.60
2022-12-19T21:38:02.519Z,13.60
2022-12-19T21:40:31.087Z,13.50
2022-12-19T21:42:59.999Z,13.30
2022-12-19T21:45:28.676Z,10.00
2022-12-19T21:47:57.249Z,13.20
2022-12-19T21:50:25.837Z,14.10
2022-12-19T21:52:56.031Z,14.00
2022-12-19T21:55:25.063Z,14.90
2022-12-19T21:57:53.849Z,15.20
2022-12-19T22:00:22.800Z,14.00
2022-12-19T22:03:12.610Z,13.60
2022-12-19T22:05:40.691Z,12.20
2022-12-19T22:08:11.105Z,12.80
2022-12-19T22:10:40.317Z,12.30
2022-12-19T22:13:09.013Z,13.80
2022-12-19T22:15:37.797Z,14.00
2022-12-19T22:18:06.587Z,14.40
2022-12-19T22:20:35.387Z,11.70
2022-12-19T22:23:09.714Z,13.00
2022-12-19T22:25:41.654Z,13.30
2022-12-19T22:28:10.341Z,12.10
2022-12-19T22:30:39.030Z,11.50
2022-12-19T22:33:07.823Z,13.10
2022-12-19T22:35:36.552Z,12.40
2022-12-19T22:38:05.091Z,12.60
2022-12-19T22:40:34.730Z,11.90
2022-12-19T22:43:03.282Z,10.90
2022-12-19T22:45:32.026Z,10.80
2022-12-19T22:48:00.857Z,10.60
2022-12-19T22:50:29.547Z,12.40
2022-12-19T22:52:58.538Z,12.00
2022-12-19T22:55:27.226Z,12.10
2022-12-19T22:57:55.719Z,12.60
2022-12-19T23:00:24.397Z,12.80
2022-12-19T23:02:53.143Z,10.80
2022-12-19T23:05:22.279Z,11.50
2022-12-19T23:07:50.868Z,11.40
2022-12-19T23:10:19.557Z,11.50
2022-12-19T23:12:48.086Z,11.60
2022-12-19T23:15:16.923Z,11.50
2022-12-19T23:17:46.033Z,11.10
2022-12-19T23:20:14.917Z,10.90
2022-12-19T23:22:44.118Z,10.70
2022-12-19T23:25:13.031Z,10.10
2022-12-19T23:27:42.137Z,10.80
2022-12-19T23:30:11.908Z,9.90
2022-12-19T23:32:45.484Z,12.00
2022-12-19T23:35:17.961Z,12.00
2022-12-19T23:37:46.683Z,11.30
2022-12-19T23:40:15.686Z,11.30
2022-12-19T23:42:44.362Z,11.80
2022-12-19T23:45:13.150Z,11.90
2022-12-19T23:47:41.733Z,11.10
2022-12-19T23:50:11.118Z,11.90
2022-12-19T23:52:39.726Z,12.10
2022-12-19T23:55:09.878Z,11.40
2022-12-19T23:57:38.524Z,12.20
